Time;durP1;ratioP1;P1;durP2;ratioP2;P2;SDS_P1;SDS_P2;PMS_P1;PMS_P2;Temp;Humidity;BMP_temperature;BMP_pressure;BME280_temperature;BME280_humidity;BME280_pressure;Samples;Min_cycle;Max_cycle;Signal;HPM_P1;HPM_P2
2021/04/03 00:00:42;;;;;;;10.20;2.80;;;7.30;99.90;;;;;;5023512;28;20538;-86
2021/04/03 00:03:11;;;;;;;8.27;2.20;;;7.10;99.90;;;;;;5041403;28;20222;-86
2021/04/03 00:05:38;;;;;;;16.33;2.97;;;7.10;99.90;;;;;;5029575;28;20205;-87
2021/04/03 00:08:06;;;;;;;7.43;1.70;;;7.20;99.90;;;;;;5040318;28;20688;-87
2021/04/03 00:10:46;;;;;;;8.60;2.70;;;7.20;99.90;;;;;;5032534;28;20225;-86
2021/04/03 00:13:14;;;;;;;7.67;1.77;;;7.10;99.90;;;;;;5033621;28;20208;-86
2021/04/03 00:15:41;;;;;;;10.40;1.87;;;7.20;99.90;;;;;;5040333;28;20634;-87
2021/04/03 00:18:07;;;;;;;11.13;2.07;;;7.30;99.90;;;;;;5040812;28;20340;-87
2021/04/03 00:20:35;;;;;;;7.80;2.03;;;7.30;99.90;;;;;;5040663;28;20213;-87
2021/04/03 00:23:05;;;;;;;7.27;2.13;;;7.30;99.90;;;;;;5040287;28;20232;-87
2021/04/03 00:25:32;;;;;;;3.50;1.50;;;7.30;99.90;;;;;;5035628;28;20243;-87
2021/04/03 00:28:00;;;;;;;8.43;2.23;;;7.10;99.90;;;;;;5037804;28;20293;-86
2021/04/03 00:30:26;;;;;;;9.67;1.87;;;7.10;99.90;;;;;;5042413;28;20226;-86
2021/04/03 00:32:57;;;;;;;8.63;2.10;;;7.30;99.90;;;;;;5033300;28;20194;-86
2021/04/03 00:35:29;;;;;;;9.17;2.10;;;7.20;99.90;;;;;;5050952;28;20338;-87
2021/04/03 00:37:57;;;;;;;9.27;2.43;;;7.20;99.90;;;;;;5059675;28;20206;-87
2021/04/03 00:40:30;;;;;;;13.93;2.30;;;7.20;99.90;;;;;;5023846;28;20195;-87
2021/04/03 00:42:58;;;;;;;8.40;1.80;;;7.20;99.90;;;;;;5054944;28;20191;-87
2021/04/03 00:45:25;;;;;;;13.83;2.80;;;7.20;99.90;;;;;;5024102;28;20273;-87
2021/04/03 00:47:52;;;;;;;11.47;2.50;;;7.30;99.90;;;;;;5037599;28;20264;-87
2021/04/03 00:50:30;;;;;;;14.93;2.30;;;7.20;99.90;;;;;;5049548;28;20538;-87
2021/04/03 00:52:57;;;;;;;5.80;1.90;;;7.20;99.90;;;;;;5041566;28;20249;-87
2021/04/03 00:55:23;;;;;;;16.37;3.03;;;7.10;99.90;;;;;;5039168;28;20248;-87
2021/04/03 00:57:50;;;;;;;6.40;1.60;;;7.10;99.90;;;;;;5053644;28;20277;-88
2021/04/03 01:00:18;;;;;;;7.40;1.70;;;7.00;99.90;;;;;;5040561;28;20229;-88
2021/04/03 01:02:45;;;;;;;13.77;2.00;;;7.10;99.90;;;;;;5054617;28;20238;-88
2021/04/03 01:05:15;;;;;;;5.73;1.40;;;7.10;99.90;;;;;;5043518;28;20201;-88
2021/04/03 01:07:42;;;;;;;8.97;1.90;;;7.10;99.90;;;;;;5037289;28;20270;-87
2021/04/03 01:10:12;;;;;;;4.87;1.63;;;7.30;99.90;;;;;;5038045;28;20205;-87
2021/04/03 01:12:38;;;;;;;8.07;1.50;;;7.10;99.90;;;;;;5033766;28;20217;-87
2021/04/03 01:15:25;;;;;;;4.13;1.60;;;7.20;99.90;;;;;;5040434;28;20196;-87
2021/04/03 01:18:05;;;;;;;8.87;1.70;;;7.20;99.90;;;;;;5048303;28;20260;-86
2021/04/03 01:20:42;;;;;;;6.63;2.10;;;7.10;99.90;;;;;;5033196;28;20198;-86
2021/04/03 01:23:21;;;;;;;14.37;2.13;;;7.20;99.90;;;;;;5033781;28;20263;-86
2021/04/03 01:26:25;;;;;;;5.83;1.40;;;7.10;99.90;;;;;;5023738;28;20198;-86
2021/04/03 01:29:09;;;;;;;8.20;1.83;;;7.40;99.90;;;;;;5029097;28;20199;-86
2021/04/03 01:31:38;;;;;;;7.47;1.77;;;7.30;99.90;;;;;;5051264;28;20236;-86
2021/04/03 01:34:08;;;;;;;5.17;1.80;;;7.40;99.90;;;;;;5029167;28;20212;-86
2021/04/03 01:36:40;;;;;;;5.97;1.53;;;7.40;99.90;;;;;;5031175;28;20203;-86
2021/04/03 01:39:13;;;;;;;11.50;1.70;;;7.20;99.90;;;;;;5034432;28;20199;-85
2021/04/03 01:41:43;;;;;;;5.90;1.33;;;7.40;99.90;;;;;;5050980;28;20200;-85
2021/04/03 01:44:15;;;;;;;8.40;1.67;;;7.50;99.90;;;;;;5041284;28;20674;-85
2021/04/03 01:46:43;;;;;;;5.47;1.13;;;7.40;99.90;;;;;;5047050;28;20226;-85
2021/04/03 01:49:14;;;;;;;4.80;1.70;;;7.50;99.90;;;;;;5046858;28;20239;-85
2021/04/03 01:51:46;;;;;;;10.67;1.73;;;7.60;99.90;;;;;;5053509;28;20190;-85
2021/04/03 01:54:14;;;;;;;9.03;1.90;;;7.40;99.90;;;;;;5031790;28;20197;-85
2021/04/03 01:56:43;;;;;;;6.63;1.73;;;7.40;99.90;;;;;;5035008;28;20625;-85
2021/04/03 01:59:11;;;;;;;11.57;1.40;;;7.40;99.90;;;;;;5037184;28;20634;-86
2021/04/03 02:01:43;;;;;;;13.07;1.93;;;7.40;99.90;;;;;;5041501;28;20661;-86
2021/04/03 02:04:12;;;;;;;17.07;1.83;;;7.40;99.90;;;;;;5035813;28;20202;-86
2021/04/03 02:06:44;;;;;;;11.63;1.77;;;7.40;99.90;;;;;;5032611;28;20225;-86
2021/04/03 02:09:13;;;;;;;12.77;1.70;;;7.60;99.90;;;;;;5035448;28;20286;-86
2021/04/03 02:11:43;;;;;;;7.73;1.60;;;7.70;99.90;;;;;;5048373;28;20504;-86
2021/04/03 02:14:11;;;;;;;5.07;1.20;;;7.80;99.90;;;;;;5034277;28;20199;-86
2021/04/03 02:16:39;;;;;;;8.07;1.83;;;7.80;99.90;;;;;;5036547;28;20311;-86
2021/04/03 02:19:08;;;;;;;13.70;2.57;;;7.70;99.90;;;;;;5025063;28;20303;-85
2021/04/03 02:21:36;;;;;;;5.43;1.37;;;7.50;99.90;;;;;;5032835;28;20231;-85
2021/04/03 02:24:02;;;;;;;8.17;2.33;;;7.50;99.90;;;;;;5035983;28;20224;-85
2021/04/03 02:26:30;;;;;;;4.63;1.47;;;7.50;99.90;;;;;;5016273;28;20368;-86
2021/04/03 02:28:57;;;;;;;12.13;2.50;;;7.50;99.90;;;;;;5045326;28;20203;-86
2021/04/03 02:31:25;;;;;;;6.90;1.50;;;7.60;99.90;;;;;;5026751;28;20238;-86
2021/04/03 02:33:52;;;;;;;5.83;1.63;;;7.70;99.90;;;;;;5034730;28;20317;-87
2021/04/03 02:36:19;;;;;;;7.03;1.63;;;7.70;99.90;;;;;;5032151;28;20303;-86
2021/04/03 02:38:48;;;;;;;9.27;2.00;;;7.70;99.90;;;;;;5039755;28;20194;-86
2021/04/03 02:41:28;;;;;;;11.10;1.93;;;7.70;99.90;;;;;;5034478;28;20199;-85
2021/04/03 02:44:09;;;;;;;10.13;1.57;;;7.70;99.90;;;;;;5049312;28;20202;-85
2021/04/03 02:47:04;;;;;;;11.80;1.70;;;7.70;99.90;;;;;;5035795;28;20219;-85
2021/04/03 02:49:39;;;;;;;9.47;1.40;;;7.80;99.90;;;;;;5032110;28;20208;-85
2021/04/03 02:52:09;;;;;;;11.90;2.03;;;7.80;99.90;;;;;;5046175;28;20637;-85
2021/04/03 02:54:37;;;;;;;7.40;2.40;;;7.80;99.90;;;;;;5026382;28;20319;-85
2021/04/03 02:57:09;;;;;;;12.53;2.60;;;7.80;99.90;;;;;;5033969;28;20178;-86
2021/04/03 02:59:38;;;;;;;8.67;2.00;;;7.70;99.90;;;;;;5032864;28;20235;-85
2021/04/03 03:02:06;;;;;;;4.23;1.60;;;7.80;99.90;;;;;;5034796;28;20210;-85
2021/04/03 03:04:33;;;;;;;11.13;2.83;;;7.70;99.90;;;;;;5034893;28;20219;-85
2021/04/03 03:07:00;;;;;;;9.20;1.73;;;7.60;99.90;;;;;;5030590;28;21656;-84
2021/04/03 03:09:28;;;;;;;11.53;1.97;;;7.50;99.90;;;;;;5035108;28;20282;-85
2021/04/03 03:11:57;;;;;;;11.10;2.13;;;7.60;99.90;;;;;;5034278;28;20230;-84
2021/04/03 03:14:25;;;;;;;9.57;1.67;;;7.60;99.90;;;;;;5034678;28;20270;-85
2021/04/03 03:16:53;;;;;;;7.80;1.70;;;7.50;99.90;;;;;;5016869;28;20237;-85
2021/04/03 03:19:22;;;;;;;10.83;2.57;;;7.60;99.90;;;;;;5033759;28;20273;-84
2021/04/03 03:21:49;;;;;;;10.90;3.03;;;7.60;99.90;;;;;;5033897;28;20207;-85
2021/04/03 03:24:16;;;;;;;10.23;1.87;;;7.60;99.90;;;;;;5018491;28;20280;-85
2021/04/03 03:26:45;;;;;;;10.50;1.97;;;7.40;99.90;;;;;;5019406;28;20241;-85
2021/04/03 03:29:12;;;;;;;7.13;1.90;;;7.20;99.90;;;;;;5013624;28;20200;-85
2021/04/03 03:31:40;;;;;;;11.33;2.10;;;7.30;99.90;;;;;;5022958;28;20246;-85
2021/04/03 03:34:08;;;;;;;11.17;2.30;;;7.20;99.90;;;;;;5048376;28;20201;-85
2021/04/03 03:36:36;;;;;;;9.43;1.97;;;7.20;99.90;;;;;;5038425;28;20202;-85
2021/04/03 03:39:05;;;;;;;9.50;2.07;;;7.10;99.90;;;;;;5021990;28;20215;-85
2021/04/03 03:41:34;;;;;;;12.90;2.07;;;7.20;99.90;;;;;;5020267;28;20541;-86
2021/04/03 03:44:05;;;;;;;9.30;2.20;;;7.10;99.90;;;;;;5038438;28;20203;-86
2021/04/03 03:46:32;;;;;;;10.30;2.10;;;7.10;99.90;;;;;;5035219;28;20278;-86
2021/04/03 03:48:58;;;;;;;9.63;1.90;;;7.20;99.90;;;;;;5047967;28;20257;-86
2021/04/03 03:51:25;;;;;;;9.43;1.77;;;7.40;99.90;;;;;;5038387;28;20224;-85
2021/04/03 03:53:51;;;;;;;8.07;2.47;;;7.50;99.90;;;;;;5033697;28;20201;-85
2021/04/03 03:56:18;;;;;;;5.87;2.27;;;7.30;99.90;;;;;;5031249;28;20697;-85
2021/04/03 03:58:45;;;;;;;7.37;1.77;;;7.30;99.90;;;;;;5033608;28;20666;-85
2021/04/03 04:01:11;;;;;;;9.60;2.10;;;7.20;99.90;;;;;;5049002;28;20228;-85
2021/04/03 04:03:37;;;;;;;11.33;1.97;;;7.30;99.90;;;;;;5037210;28;20342;-86
2021/04/03 04:06:05;;;;;;;5.93;1.70;;;7.30;99.90;;;;;;5035010;28;20284;-86
2021/04/03 04:08:32;;;;;;;11.03;1.90;;;7.20;99.90;;;;;;5033502;28;20255;-84
2021/04/03 04:10:58;;;;;;;12.57;2.30;;;7.10;99.90;;;;;;5006668;28;20229;-85
2021/04/03 04:13:25;;;;;;;10.97;1.97;;;7.30;99.90;;;;;;5036127;28;20198;-85
2021/04/03 04:15:54;;;;;;;8.33;1.90;;;7.40;99.90;;;;;;5037070;28;20255;-86
2021/04/03 04:18:21;;;;;;;6.07;2.47;;;7.30;99.90;;;;;;5050281;28;20205;-86
2021/04/03 04:20:47;;;;;;;14.10;2.57;;;7.10;99.90;;;;;;5015063;28;20215;-86
2021/04/03 04:23:13;;;;;;;11.03;1.90;;;7.30;99.90;;;;;;5018216;28;20587;-86
2021/04/03 04:25:40;;;;;;;10.77;2.47;;;7.30;99.90;;;;;;5035753;28;20205;-87
2021/04/03 04:28:06;;;;;;;10.13;2.13;;;7.40;99.90;;;;;;5018748;28;20262;-86
2021/04/03 04:30:33;;;;;;;10.53;2.07;;;7.30;99.90;;;;;;5055138;28;20201;-84
2021/04/03 04:32:59;;;;;;;15.13;2.30;;;7.30;99.90;;;;;;5036032;28;20206;-85
2021/04/03 04:35:26;;;;;;;13.00;1.77;;;7.10;99.90;;;;;;5041243;28;20193;-85
2021/04/03 04:37:52;;;;;;;7.77;1.37;;;7.30;99.90;;;;;;5037736;28;20185;-85
2021/04/03 04:40:18;;;;;;;9.73;2.17;;;7.20;99.90;;;;;;5052929;28;20204;-85
2021/04/03 04:42:46;;;;;;;13.20;2.60;;;7.30;99.90;;;;;;5039226;28;20209;-85
2021/04/03 04:45:12;;;;;;;8.57;1.90;;;7.30;99.90;;;;;;5054939;28;20193;-85
2021/04/03 04:47:39;;;;;;;9.10;1.43;;;7.30;99.90;;;;;;5058497;28;20217;-85
2021/04/03 04:50:07;;;;;;;9.33;2.00;;;7.30;99.90;;;;;;5038270;28;20198;-85
2021/04/03 04:52:34;;;;;;;6.37;1.70;;;7.30;99.90;;;;;;5062954;28;20277;-85
2021/04/03 04:55:01;;;;;;;11.27;1.90;;;7.30;99.90;;;;;;5042605;28;20297;-85
2021/04/03 04:57:28;;;;;;;10.23;1.60;;;7.30;99.90;;;;;;5034567;28;20272;-85
2021/04/03 04:59:55;;;;;;;7.97;2.10;;;7.40;99.90;;;;;;5023076;28;20732;-84
2021/04/03 05:02:22;;;;;;;11.30;2.87;;;7.30;99.90;;;;;;5023891;28;20225;-86
2021/04/03 05:04:49;;;;;;;5.33;1.63;;;7.20;99.90;;;;;;5055661;28;20212;-85
2021/04/03 05:07:16;;;;;;;8.57;2.03;;;7.30;99.90;;;;;;5022293;28;20216;-85
2021/04/03 05:09:43;;;;;;;8.80;2.40;;;7.30;99.90;;;;;;5039280;28;20201;-85
2021/04/03 05:12:09;;;;;;;12.43;2.60;;;7.20;99.90;;;;;;5040732;28;20988;-85
2021/04/03 05:14:36;;;;;;;13.10;2.47;;;7.10;99.90;;;;;;5040036;28;20204;-85
2021/04/03 05:17:02;;;;;;;11.67;2.47;;;7.00;99.90;;;;;;5039200;28;20196;-85
2021/04/03 05:19:29;;;;;;;12.43;2.33;;;7.10;99.90;;;;;;5029531;28;20211;-85
2021/04/03 05:21:55;;;;;;;15.73;2.03;;;7.00;99.90;;;;;;5048220;28;20206;-85
2021/04/03 05:24:21;;;;;;;10.90;2.30;;;6.90;99.90;;;;;;5037215;28;20228;-84
2021/04/03 05:26:48;;;;;;;14.43;1.70;;;7.00;99.90;;;;;;5020990;28;20203;-84
2021/04/03 05:29:15;;;;;;;16.70;2.90;;;7.00;99.90;;;;;;5022092;28;20206;-84
2021/04/03 05:31:41;;;;;;;8.63;2.27;;;7.10;99.90;;;;;;4996553;28;610871;-84
2021/04/03 05:34:08;;;;;;;12.63;2.17;;;7.10;99.90;;;;;;5006663;28;20244;-85
2021/04/03 05:36:34;;;;;;;16.20;2.40;;;7.00;99.90;;;;;;5001138;28;20197;-85
2021/04/03 05:39:00;;;;;;;10.27;2.30;;;7.00;99.90;;;;;;5001170;28;20228;-85
2021/04/03 05:41:27;;;;;;;15.60;2.23;;;7.20;99.90;;;;;;5018138;28;20202;-86
2021/04/03 05:43:54;;;;;;;16.13;2.63;;;7.00;99.90;;;;;;5018293;28;20406;-86
2021/04/03 05:46:22;;;;;;;9.23;2.10;;;7.20;99.90;;;;;;5018537;28;20264;-85
2021/04/03 05:48:49;;;;;;;12.30;3.30;;;7.20;99.90;;;;;;5015267;28;20224;-85
2021/04/03 05:51:17;;;;;;;11.03;2.33;;;7.10;99.90;;;;;;5028882;28;20206;-86
2021/04/03 05:53:44;;;;;;;9.63;2.33;;;7.00;99.90;;;;;;5026111;28;20229;-86
2021/04/03 05:56:10;;;;;;;15.63;2.33;;;6.90;99.90;;;;;;5023765;28;20202;-86
2021/04/03 05:58:37;;;;;;;12.83;2.40;;;7.10;99.90;;;;;;5015385;28;20559;-86
2021/04/03 06:01:07;;;;;;;11.03;2.57;;;7.20;99.90;;;;;;5034841;28;20332;-86
2021/04/03 06:03:34;;;;;;;18.30;2.80;;;7.20;99.90;;;;;;5014296;28;20225;-86
2021/04/03 06:06:02;;;;;;;7.40;3.13;;;7.30;99.90;;;;;;5021688;28;20205;-86
2021/04/03 06:08:29;;;;;;;11.40;3.23;;;7.30;99.90;;;;;;5015396;28;20223;-87
2021/04/03 06:11:17;;;;;;;17.27;2.60;;;7.40;99.90;;;;;;5012998;28;20237;-87
2021/04/03 06:14:01;;;;;;;13.13;2.70;;;7.50;99.90;;;;;;5023292;28;20276;-87
2021/04/03 06:16:30;;;;;;;11.87;2.53;;;7.50;99.90;;;;;;5021275;28;20215;-86
2021/04/03 06:19:11;;;;;;;18.13;2.63;;;7.30;99.90;;;;;;5013649;28;20893;-86
2021/04/03 06:21:42;;;;;;;17.80;2.77;;;7.50;99.90;;;;;;5017359;28;20202;-86
2021/04/03 06:24:29;;;;;;;15.47;3.00;;;7.60;99.90;;;;;;5016981;28;20326;-86
2021/04/03 06:27:17;;;;;;;11.60;2.43;;;7.50;99.90;;;;;;5013939;28;20211;-87
2021/04/03 06:29:48;;;;;;;15.80;2.40;;;7.60;99.90;;;;;;5030375;28;20202;-87
2021/04/03 06:32:21;;;;;;;16.37;3.60;;;7.60;99.90;;;;;;5040927;28;20287;-84
2021/04/03 06:34:53;;;;;;;11.33;2.13;;;7.70;99.90;;;;;;5035078;28;20206;-84
2021/04/03 06:37:28;;;;;;;8.23;2.20;;;7.80;99.90;;;;;;5054561;28;20216;-84
2021/04/03 06:39:57;;;;;;;9.90;2.53;;;7.90;99.90;;;;;;5039141;28;20208;-85
2021/04/03 06:42:44;;;;;;;15.80;2.93;;;7.90;99.90;;;;;;5053312;28;20198;-84
2021/04/03 06:45:28;;;;;;;15.63;3.27;;;7.80;99.90;;;;;;5033349;28;20200;-84
2021/04/03 06:47:57;;;;;;;12.83;2.93;;;7.80;99.90;;;;;;5032456;28;20210;-84
2021/04/03 06:50:26;;;;;;;11.40;2.53;;;8.00;99.90;;;;;;5027932;28;20218;-84
2021/04/03 06:52:53;;;;;;;9.17;2.57;;;8.00;99.90;;;;;;5035489;28;20184;-84
2021/04/03 06:55:22;;;;;;;18.93;2.97;;;7.70;99.90;;;;;;5024255;28;20228;-84
2021/04/03 06:57:49;;;;;;;14.43;3.33;;;7.90;99.90;;;;;;5023866;28;20258;-84
2021/04/03 07:00:19;;;;;;;12.83;2.87;;;8.10;99.90;;;;;;5023713;28;20632;-84
2021/04/03 07:02:51;;;;;;;15.37;3.33;;;8.10;99.90;;;;;;5040744;28;20258;-84
2021/04/03 07:05:20;;;;;;;18.53;3.43;;;8.10;99.90;;;;;;5039971;28;20311;-84
2021/04/03 07:07:47;;;;;;;10.87;2.40;;;8.10;99.90;;;;;;5039894;28;20241;-84
2021/04/03 07:10:15;;;;;;;13.70;2.63;;;8.20;99.90;;;;;;5060449;28;20190;-85
2021/04/03 07:12:42;;;;;;;19.43;2.83;;;8.20;99.90;;;;;;5044024;28;20227;-85
2021/04/03 07:15:10;;;;;;;11.43;2.20;;;8.10;99.90;;;;;;5045902;28;20202;-85
2021/04/03 07:17:40;;;;;;;14.73;3.07;;;8.10;99.90;;;;;;5042364;28;20316;-85
2021/04/03 07:20:12;;;;;;;17.10;3.57;;;8.10;99.90;;;;;;5043011;28;20550;-85
2021/04/03 07:22:44;;;;;;;16.87;2.80;;;8.00;99.90;;;;;;5060339;28;20269;-85
2021/04/03 07:25:12;;;;;;;13.13;2.47;;;8.10;99.90;;;;;;5052403;28;20235;-85
2021/04/03 07:27:45;;;;;;;14.10;2.27;;;8.20;99.90;;;;;;5046262;28;20285;-84
2021/04/03 07:30:12;;;;;;;10.27;2.10;;;8.20;99.90;;;;;;5039792;28;20259;-85
2021/04/03 07:32:42;;;;;;;17.17;3.03;;;8.10;99.90;;;;;;5034952;28;20278;-83
2021/04/03 07:35:21;;;;;;;16.33;3.03;;;8.00;99.90;;;;;;5040234;28;20530;-82
2021/04/03 07:37:49;;;;;;;23.00;2.63;;;8.00;99.90;;;;;;5031421;28;20201;-80
2021/04/03 07:40:25;;;;;;;18.93;2.80;;;8.20;99.90;;;;;;5021325;28;20823;-80
2021/04/03 07:42:52;;;;;;;14.73;2.80;;;8.40;99.90;;;;;;5039798;28;20205;-79
2021/04/03 07:45:30;;;;;;;16.50;2.20;;;8.20;99.90;;;;;;5036068;28;20205;-80
2021/04/03 07:47:57;;;;;;;8.47;2.07;;;8.00;99.90;;;;;;5036263;28;20230;-81
2021/04/03 07:50:42;;;;;;;10.50;2.97;;;8.00;99.90;;;;;;5040731;28;20215;-81
2021/04/03 07:53:09;;;;;;;13.87;3.07;;;8.10;99.90;;;;;;5039825;28;20204;-81
2021/04/03 07:55:37;;;;;;;16.03;3.03;;;8.30;99.90;;;;;;5023868;28;20310;-82
2021/04/03 07:58:19;;;;;;;11.80;2.80;;;8.30;99.90;;;;;;5052704;28;20209;-82
2021/04/03 08:00:46;;;;;;;10.70;2.83;;;8.30;99.90;;;;;;5037160;28;20228;-79
2021/04/03 08:03:18;;;;;;;14.73;2.87;;;8.20;99.90;;;;;;5022396;28;20206;-81
2021/04/03 08:05:47;;;;;;;12.53;2.70;;;8.20;99.90;;;;;;5023009;28;20298;-82
2021/04/03 08:08:17;;;;;;;15.43;2.83;;;8.20;99.90;;;;;;5031756;28;20208;-82
2021/04/03 08:10:44;;;;;;;22.27;3.13;;;8.40;99.90;;;;;;5038898;28;20194;-82
2021/04/03 08:13:11;;;;;;;12.80;2.17;;;8.60;99.90;;;;;;5056648;28;20207;-82
2021/04/03 08:15:42;;;;;;;20.83;3.17;;;8.50;99.90;;;;;;5035263;28;20256;-82
2021/04/03 08:18:09;;;;;;;15.50;2.90;;;8.50;99.90;;;;;;5039537;28;20204;-81
2021/04/03 08:20:48;;;;;;;12.77;3.43;;;8.40;99.90;;;;;;5023043;28;20207;-81
2021/04/03 08:23:15;;;;;;;13.33;2.93;;;8.60;99.90;;;;;;5037532;28;20228;-81
2021/04/03 08:25:54;;;;;;;16.77;3.80;;;8.80;99.90;;;;;;5031010;28;20208;-82
2021/04/03 08:28:22;;;;;;;11.70;2.97;;;8.90;99.90;;;;;;5014051;28;20218;-82
2021/04/03 08:30:51;;;;;;;15.83;3.37;;;8.80;99.90;;;;;;5018355;28;20205;-82
2021/04/03 08:33:22;;;;;;;17.57;3.93;;;8.90;99.90;;;;;;5037467;28;20563;-81
2021/04/03 08:35:51;;;;;;;14.67;2.90;;;9.10;99.90;;;;;;5037833;28;20243;-81
2021/04/03 08:38:23;;;;;;;12.13;2.97;;;8.80;99.90;;;;;;5055495;28;20210;-81
2021/04/03 08:40:55;;;;;;;13.50;2.83;;;8.90;99.90;;;;;;5052367;28;20580;-81
2021/04/03 08:43:26;;;;;;;12.27;2.60;;;9.20;99.90;;;;;;5040171;28;20273;-83
2021/04/03 08:46:03;;;;;;;12.63;3.10;;;9.20;99.90;;;;;;5021465;28;20212;-82
2021/04/03 08:48:35;;;;;;;13.80;2.80;;;9.60;99.90;;;;;;5041059;28;20887;-82
2021/04/03 08:51:04;;;;;;;16.47;3.47;;;10.20;99.90;;;;;;5028314;28;20269;-82
2021/04/03 08:53:43;;;;;;;11.33;3.10;;;10.20;99.90;;;;;;5042750;28;20812;-82
2021/04/03 08:56:32;;;;;;;12.73;2.90;;;10.70;99.90;;;;;;5038051;28;20334;-82
2021/04/03 08:59:00;;;;;;;13.93;2.67;;;10.80;99.90;;;;;;5016296;28;20276;-82
2021/04/03 09:01:30;;;;;;;19.67;3.30;;;11.20;99.90;;;;;;5037992;28;20214;-82
2021/04/03 09:04:03;;;;;;;13.17;3.00;;;11.20;99.90;;;;;;5036817;28;20193;-82
2021/04/03 09:06:57;;;;;;;16.63;3.90;;;11.30;99.90;;;;;;5046226;28;20211;-83
2021/04/03 09:09:27;;;;;;;16.40;3.00;;;11.60;99.90;;;;;;5048167;28;20211;-81
2021/04/03 09:11:58;;;;;;;10.73;3.30;;;11.60;99.90;;;;;;5039236;28;20608;-82
2021/04/03 09:14:35;;;;;;;14.03;2.50;;;12.20;97.20;;;;;;5006173;28;20251;-80
2021/04/03 09:17:04;;;;;;;15.73;3.93;;;11.70;99.20;;;;;;5053806;28;20280;-80
2021/04/03 09:19:32;;;;;;;14.63;2.80;;;11.60;99.90;;;;;;5032086;28;20206;-80
2021/04/03 09:22:03;;;;;;;11.00;3.07;;;12.40;96.30;;;;;;5025202;28;20250;-81
2021/04/03 09:24:40;;;;;;;10.80;2.50;;;11.90;96.80;;;;;;5032073;28;20253;-81
2021/04/03 09:27:14;;;;;;;14.20;2.97;;;12.30;96.10;;;;;;5052951;28;20218;-79
2021/04/03 09:29:43;;;;;;;15.17;3.03;;;12.60;94.00;;;;;;5055101;28;20214;-80
2021/04/03 09:32:11;;;;;;;12.27;2.30;;;12.50;92.50;;;;;;5051813;28;20288;-80
2021/04/03 09:34:38;;;;;;;16.03;3.27;;;12.70;93.10;;;;;;5052114;28;20195;-80
2021/04/03 09:37:31;;;;;;;9.40;2.30;;;12.40;91.80;;;;;;5052075;28;20698;-80
2021/04/03 09:39:57;;;;;;;12.13;2.53;;;12.20;91.30;;;;;;5016227;28;20208;-80
2021/04/03 09:42:29;;;;;;;13.63;2.63;;;12.80;89.70;;;;;;5051662;28;20280;-81
2021/04/03 09:44:57;;;;;;;7.90;2.20;;;12.30;86.40;;;;;;5037189;28;20531;-82
2021/04/03 09:47:24;;;;;;;10.10;1.93;;;12.30;87.10;;;;;;5035178;28;21025;-82
2021/04/03 09:49:51;;;;;;;9.10;2.30;;;12.20;87.70;;;;;;5020690;28;20225;-83
2021/04/03 09:52:19;;;;;;;8.53;2.73;;;12.30;84.20;;;;;;5035452;28;20271;-83
2021/04/03 09:54:47;;;;;;;10.30;2.83;;;12.10;84.90;;;;;;5035842;28;20274;-83
2021/04/03 09:57:15;;;;;;;6.50;2.37;;;11.60;87.40;;;;;;5040672;28;20202;-82
2021/04/03 09:59:42;;;;;;;6.80;1.90;;;11.40;91.10;;;;;;5036635;28;20278;-83
2021/04/03 10:02:11;;;;;;;9.43;2.60;;;12.20;83.90;;;;;;5031572;28;20206;-82
2021/04/03 10:04:38;;;;;;;10.60;2.20;;;12.30;82.70;;;;;;5051344;28;20257;-82
2021/04/03 10:07:05;;;;;;;11.13;2.37;;;12.60;78.80;;;;;;5036505;28;20203;-83
2021/04/03 10:09:35;;;;;;;13.90;3.40;;;12.80;74.30;;;;;;5015846;28;20628;-83
2021/04/03 10:12:04;;;;;;;12.80;2.63;;;12.60;79.90;;;;;;5049536;28;20197;-84
2021/04/03 10:14:31;;;;;;;10.13;2.30;;;12.80;82.30;;;;;;5020117;28;20575;-83
2021/04/03 10:17:15;;;;;;;12.30;2.90;;;13.20;78.40;;;;;;5034124;28;20202;-83
2021/04/03 10:19:42;;;;;;;7.03;2.10;;;13.40;73.90;;;;;;5031116;28;20267;-82
2021/04/03 10:22:08;;;;;;;7.30;1.80;;;13.00;74.60;;;;;;5030475;28;20219;-83
2021/04/03 10:24:38;;;;;;;7.97;2.53;;;13.20;71.00;;;;;;5018978;28;20249;-83
2021/04/03 10:27:05;;;;;;;9.57;2.37;;;12.90;69.70;;;;;;5035332;28;20210;-83
2021/04/03 10:29:32;;;;;;;11.03;2.50;;;13.50;70.70;;;;;;5021239;28;20221;-83
2021/04/03 10:31:59;;;;;;;10.63;2.13;;;13.40;68.20;;;;;;5024016;28;20284;-83
2021/04/03 10:34:25;;;;;;;7.23;1.90;;;13.10;71.10;;;;;;5023090;28;20202;-83
2021/04/03 10:36:52;;;;;;;8.53;2.60;;;13.40;66.60;;;;;;5017698;28;20257;-83
2021/04/03 10:39:18;;;;;;;10.87;2.40;;;13.30;67.70;;;;;;5053023;28;20225;-82
2021/04/03 10:41:44;;;;;;;11.17;2.37;;;13.10;67.50;;;;;;5034247;28;20218;-82
2021/04/03 10:44:11;;;;;;;8.50;2.63;;;13.30;69.60;;;;;;5054347;28;20265;-82
2021/04/03 10:46:37;;;;;;;8.13;2.33;;;13.90;66.60;;;;;;5036893;28;20622;-82
2021/04/03 10:49:05;;;;;;;8.20;2.70;;;13.70;65.80;;;;;;5036236;28;20235;-82
2021/04/03 10:51:32;;;;;;;8.73;2.43;;;14.10;64.20;;;;;;5032983;28;20198;-82
2021/04/03 10:53:59;;;;;;;5.20;1.77;;;13.30;65.90;;;;;;5046558;28;20197;-82
2021/04/03 10:56:25;;;;;;;8.93;1.83;;;13.50;67.50;;;;;;5033714;28;20235;-82
2021/04/03 10:58:53;;;;;;;8.33;1.90;;;13.50;62.60;;;;;;5035082;28;20259;-83
2021/04/03 11:01:19;;;;;;;13.50;2.40;;;13.80;60.10;;;;;;5032498;28;20222;-82
2021/04/03 11:03:45;;;;;;;12.23;2.47;;;13.90;61.40;;;;;;5015436;28;20208;-80
2021/04/03 11:06:12;;;;;;;7.10;2.20;;;14.50;58.80;;;;;;5032902;28;20252;-81
2021/04/03 11:08:38;;;;;;;7.37;2.37;;;14.10;59.70;;;;;;5018829;28;20754;-80
2021/04/03 11:11:06;;;;;;;11.60;4.03;;;14.30;62.30;;;;;;5020125;28;20704;-81
2021/04/03 11:13:32;;;;;;;7.30;2.30;;;13.90;61.00;;;;;;5028031;28;20232;-81
2021/04/03 11:15:58;;;;;;;10.67;2.37;;;13.90;62.20;;;;;;5037269;28;20200;-81
2021/04/03 11:18:25;;;;;;;5.77;2.40;;;14.00;64.70;;;;;;5021191;28;20243;-81
2021/04/03 11:20:51;;;;;;;9.63;3.53;;;14.40;61.40;;;;;;5051789;28;20203;-81
2021/04/03 11:23:17;;;;;;;10.00;2.40;;;13.70;64.00;;;;;;5020040;28;20303;-82
2021/04/03 11:25:45;;;;;;;7.07;1.70;;;13.70;62.80;;;;;;5036748;28;20210;-81
2021/04/03 11:28:12;;;;;;;8.80;2.50;;;13.10;60.30;;;;;;5025358;28;20610;-82
2021/04/03 11:30:38;;;;;;;15.83;2.37;;;12.70;65.20;;;;;;5033589;28;20595;-82
2021/04/03 11:33:04;;;;;;;9.20;2.60;;;12.30;69.70;;;;;;5020724;28;20234;-82
2021/04/03 11:35:32;;;;;;;8.97;2.07;;;13.00;68.80;;;;;;5036885;28;20346;-81
2021/04/03 11:37:59;;;;;;;9.67;2.57;;;13.60;63.90;;;;;;5033357;28;20264;-81
2021/04/03 11:40:25;;;;;;;9.27;2.60;;;14.10;61.80;;;;;;5020954;28;20348;-81
2021/04/03 11:42:53;;;;;;;8.63;1.67;;;13.60;60.70;;;;;;5036816;28;22175;-81
2021/04/03 11:45:21;;;;;;;7.27;1.80;;;14.00;76.70;;;;;;5039236;28;20663;-79
2021/04/03 11:47:48;;;;;;;6.67;1.97;;;14.40;67.70;;;;;;5049840;28;20318;-80
2021/04/03 11:50:15;;;;;;;8.00;2.40;;;14.60;59.40;;;;;;5038228;28;20365;-81
2021/04/03 11:52:42;;;;;;;7.10;1.70;;;13.60;84.80;;;;;;5023621;28;20198;-80
2021/04/03 11:55:11;;;;;;;12.70;2.50;;;13.70;63.60;;;;;;5035288;28;20215;-82
2021/04/03 11:57:37;;;;;;;10.07;3.73;;;13.40;64.50;;;;;;5043262;28;20638;-82
2021/04/03 12:00:05;;;;;;;8.87;2.33;;;13.50;63.50;;;;;;5039493;28;20211;-82
2021/04/03 12:02:32;;;;;;;14.07;3.13;;;13.60;62.30;;;;;;5036331;28;20221;-82
2021/04/03 12:04:58;;;;;;;8.83;2.17;;;13.50;63.90;;;;;;5042169;28;20210;-81
2021/04/03 12:07:25;;;;;;;6.90;1.70;;;13.30;63.80;;;;;;5025394;28;20235;-81
2021/04/03 12:09:51;;;;;;;7.30;1.83;;;13.20;63.60;;;;;;5058844;28;20212;-81
2021/04/03 12:12:18;;;;;;;11.50;2.33;;;13.20;62.30;;;;;;5024826;28;20217;-81
2021/04/03 12:14:44;;;;;;;7.63;1.97;;;13.90;59.10;;;;;;5038291;28;20261;-81
2021/04/03 12:17:11;;;;;;;8.27;2.20;;;14.90;56.10;;;;;;5041990;28;20262;-82
2021/04/03 12:19:37;;;;;;;6.40;2.03;;;15.10;52.20;;;;;;5037449;28;20246;-81
2021/04/03 12:22:04;;;;;;;8.90;2.77;;;15.10;52.90;;;;;;5020439;28;20223;-82
2021/04/03 12:24:30;;;;;;;7.67;2.00;;;14.40;53.00;;;;;;5056073;28;20784;-83
2021/04/03 12:26:57;;;;;;;7.47;2.00;;;13.50;54.90;;;;;;5025768;28;20290;-82
2021/04/03 12:29:23;;;;;;;6.87;2.20;;;13.00;57.10;;;;;;5040636;28;20253;-82
2021/04/03 12:31:50;;;;;;;7.17;2.27;;;13.50;56.50;;;;;;5038359;28;20208;-82
2021/04/03 12:34:16;;;;;;;6.47;1.83;;;14.50;53.70;;;;;;5023494;28;20258;-82
2021/04/03 12:36:42;;;;;;;4.67;1.90;;;14.70;52.50;;;;;;5023629;28;20249;-82
2021/04/03 12:39:09;;;;;;;10.43;2.83;;;13.40;55.30;;;;;;5045429;28;20221;-81
2021/04/03 12:41:35;;;;;;;7.30;2.67;;;13.80;54.40;;;;;;5023630;28;20594;-82
2021/04/03 12:44:02;;;;;;;8.07;2.30;;;14.60;53.30;;;;;;5039887;28;20223;-82
2021/04/03 12:46:29;;;;;;;6.13;2.00;;;14.30;52.80;;;;;;5035794;28;20282;-82
2021/04/03 12:48:55;;;;;;;10.10;2.43;;;14.30;50.00;;;;;;5030687;28;20262;-82
2021/04/03 12:51:21;;;;;;;7.97;2.97;;;14.90;48.60;;;;;;5034240;28;20297;-82
2021/04/03 12:53:48;;;;;;;11.83;2.93;;;14.80;46.70;;;;;;5036700;28;20213;-82
2021/04/03 12:56:19;;;;;;;8.60;2.70;;;14.20;49.60;;;;;;5024139;28;20205;-82
2021/04/03 12:58:45;;;;;;;9.30;1.83;;;14.60;51.30;;;;;;5027186;28;20202;-82